Time;durP1;ratioP1;P1;durP2;ratioP2;P2;SDS_P1;SDS_P2;PMS_P1;PMS_P2;Temp;Humidity;BMP_temperature;BMP_pressure;BME280_temperature;BME280_humidity;BME280_pressure;Samples;Min_cycle;Max_cycle;Signal;HPM_P1;HPM_P2
2022/03/25 00:00:49;;;;;;;33.83;22.58;;;16.10;59.20;;;;;;4001909;29;20072;-66
2022/03/25 00:03:11;;;;;;;43.58;21.85;;;16.10;59.20;;;;;;4000897;29;20045;-66
2022/03/25 00:05:35;;;;;;;35.45;21.55;;;16.10;59.20;;;;;;4001137;29;20053;-65
2022/03/25 00:07:57;;;;;;;42.92;21.63;;;16.10;59.20;;;;;;4001087;29;20860;-65
2022/03/25 00:10:20;;;;;;;44.30;22.38;;;16.10;59.30;;;;;;4001286;29;20564;-66
2022/03/25 00:12:42;;;;;;;52.15;22.17;;;16.10;59.30;;;;;;4001262;29;20065;-65
2022/03/25 00:15:04;;;;;;;41.95;22.48;;;16.00;59.30;;;;;;4000920;29;20589;-66
2022/03/25 00:17:27;;;;;;;53.95;21.30;;;16.00;59.30;;;;;;4000451;29;20053;-66
2022/03/25 00:19:49;;;;;;;77.47;22.83;;;16.00;59.40;;;;;;4000643;29;20068;-66
2022/03/25 00:22:12;;;;;;;81.60;23.15;;;16.00;59.40;;;;;;4001260;29;20057;-66
2022/03/25 00:24:34;;;;;;;157.65;25.52;;;16.00;59.50;;;;;;4000047;29;20061;-66
2022/03/25 00:26:56;;;;;;;125.70;25.60;;;16.00;59.50;;;;;;4000785;29;20054;-66
2022/03/25 00:29:18;;;;;;;170.02;27.00;;;16.00;59.60;;;;;;3986070;29;20084;-66
2022/03/25 00:31:40;;;;;;;157.15;27.52;;;16.00;59.70;;;;;;3986277;29;20065;-66
2022/03/25 00:34:02;;;;;;;144.38;28.05;;;16.00;59.70;;;;;;3986186;29;20062;-66
2022/03/25 00:36:26;;;;;;;140.38;27.75;;;15.90;59.60;;;;;;3997180;29;20114;-65
2022/03/25 00:38:50;;;;;;;193.05;28.23;;;15.90;59.70;;;;;;3985732;29;20375;-65
2022/03/25 00:41:12;;;;;;;195.73;30.02;;;15.90;59.90;;;;;;3986978;29;20102;-65
2022/03/25 00:43:35;;;;;;;160.52;27.95;;;15.90;59.80;;;;;;3987289;29;20107;-66
2022/03/25 00:45:57;;;;;;;164.45;27.33;;;15.90;59.80;;;;;;3988568;29;20050;-66
2022/03/25 00:48:20;;;;;;;151.32;27.58;;;15.90;59.80;;;;;;4003422;29;20114;-66
2022/03/25 00:50:42;;;;;;;177.18;26.00;;;15.90;59.90;;;;;;3987847;29;20141;-66
2022/03/25 00:53:06;;;;;;;124.95;23.60;;;15.90;60.00;;;;;;3988306;29;20408;-66
2022/03/25 00:55:30;;;;;;;150.55;24.55;;;15.90;60.00;;;;;;3991840;29;20054;-66
2022/03/25 00:57:52;;;;;;;135.30;25.65;;;15.90;60.10;;;;;;4003824;29;20077;-66
2022/03/25 01:00:15;;;;;;;168.98;27.52;;;15.90;60.10;;;;;;3990408;29;20072;-65
2022/03/25 01:02:38;;;;;;;179.25;29.15;;;15.80;60.10;;;;;;3990215;29;20050;-65
2022/03/25 01:05:00;;;;;;;229.40;28.48;;;15.80;60.10;;;;;;4003669;29;20050;-66
2022/03/25 01:07:22;;;;;;;161.52;27.30;;;15.80;60.10;;;;;;3981299;29;20137;-66
2022/03/25 01:09:44;;;;;;;190.98;28.65;;;15.80;60.20;;;;;;4003793;29;20060;-66
2022/03/25 01:12:09;;;;;;;153.15;27.65;;;15.70;60.20;;;;;;3989827;29;20099;-66
2022/03/25 01:14:31;;;;;;;166.60;26.58;;;15.80;60.20;;;;;;4003593;29;20054;-66
2022/03/25 01:16:54;;;;;;;126.43;24.35;;;15.80;60.30;;;;;;3989193;29;20054;-66
2022/03/25 01:19:16;;;;;;;168.13;25.40;;;15.80;60.40;;;;;;4003561;29;20400;-66
2022/03/25 01:21:39;;;;;;;122.95;24.52;;;15.70;60.30;;;;;;4003216;29;20054;-66
2022/03/25 01:24:05;;;;;;;99.28;22.50;;;15.70;60.30;;;;;;3989284;29;20540;-66
2022/03/25 01:26:28;;;;;;;184.38;24.02;;;15.70;60.50;;;;;;3988938;29;20589;-65
2022/03/25 01:28:52;;;;;;;189.05;25.33;;;15.70;60.50;;;;;;4003373;29;20080;-66
2022/03/25 01:31:15;;;;;;;123.18;22.98;;;15.70;60.40;;;;;;3986042;29;20050;-66
2022/03/25 01:33:38;;;;;;;123.60;23.85;;;15.70;60.50;;;;;;3988233;29;20062;-65
2022/03/25 01:36:00;;;;;;;190.05;25.05;;;15.70;60.50;;;;;;3987898;29;20110;-66
2022/03/25 01:38:22;;;;;;;208.95;26.60;;;15.70;60.50;;;;;;3988236;29;20149;-65
2022/03/25 01:40:45;;;;;;;156.02;27.63;;;15.70;60.30;;;;;;3972796;29;20460;-65
2022/03/25 01:43:08;;;;;;;122.38;25.33;;;15.60;60.20;;;;;;3988123;29;20571;-65
2022/03/25 01:45:34;;;;;;;124.05;24.27;;;15.60;60.20;;;;;;3990633;29;20050;-65
2022/03/25 01:47:56;;;;;;;87.15;23.60;;;15.60;60.40;;;;;;3975886;29;20047;-65
2022/03/25 01:50:21;;;;;;;84.00;22.48;;;15.60;61.50;;;;;;4003062;29;20064;-65
2022/03/25 01:52:43;;;;;;;48.63;21.88;;;15.60;60.70;;;;;;4002962;29;20128;-65
2022/03/25 01:55:17;;;;;;;49.65;19.83;;;15.60;60.90;;;;;;4002592;29;20072;-65
2022/03/25 01:57:39;;;;;;;47.97;21.50;;;15.60;60.60;;;;;;4001407;29;20458;-65
2022/03/25 02:00:02;;;;;;;48.33;20.25;;;15.50;60.80;;;;;;3988823;29;20054;-66
2022/03/25 02:02:26;;;;;;;50.35;21.15;;;15.50;60.80;;;;;;3988763;29;20050;-66
2022/03/25 02:04:48;;;;;;;43.15;20.85;;;15.50;60.80;;;;;;4002942;29;20079;-65
2022/03/25 02:07:10;;;;;;;55.03;19.20;;;15.50;60.80;;;;;;4002792;29;20065;-66
2022/03/25 02:09:32;;;;;;;62.17;19.35;;;15.50;60.80;;;;;;4002607;29;20344;-66
2022/03/25 02:11:58;;;;;;;48.25;19.58;;;15.50;60.80;;;;;;3989110;29;20050;-66
2022/03/25 02:14:20;;;;;;;55.72;20.08;;;15.50;60.80;;;;;;3988312;29;20046;-66
2022/03/25 02:16:45;;;;;;;62.38;20.75;;;15.50;60.80;;;;;;3989156;29;20076;-66
2022/03/25 02:19:09;;;;;;;77.13;20.08;;;15.50;60.80;;;;;;4002732;29;20117;-66
2022/03/25 02:21:34;;;;;;;88.80;19.83;;;15.50;60.90;;;;;;3988641;29;20058;-66
2022/03/25 02:23:55;;;;;;;75.05;18.38;;;15.40;60.90;;;;;;3984547;29;20053;-65
2022/03/25 02:26:19;;;;;;;49.50;16.92;;;15.40;61.00;;;;;;3971769;29;20137;-65
2022/03/25 02:28:41;;;;;;;43.30;17.63;;;15.40;61.90;;;;;;3984300;29;20087;-66
2022/03/25 02:31:03;;;;;;;26.80;16.52;;;15.40;61.00;;;;;;3971321;29;20141;-66
2022/03/25 02:33:26;;;;;;;36.63;17.48;;;15.40;61.00;;;;;;3992284;29;20057;-66
2022/03/25 02:35:50;;;;;;;29.52;16.40;;;15.40;61.00;;;;;;3970607;29;20059;-65
2022/03/25 02:38:17;;;;;;;31.92;16.00;;;15.40;61.10;;;;;;3971338;29;20047;-65
2022/03/25 02:40:39;;;;;;;20.73;15.98;;;15.40;61.10;;;;;;3982331;29;20046;-65
2022/03/25 02:43:02;;;;;;;23.02;15.68;;;15.40;61.20;;;;;;3956195;29;20051;-66
2022/03/25 02:45:23;;;;;;;44.83;15.65;;;15.30;61.30;;;;;;3978411;29;20477;-65
2022/03/25 02:47:46;;;;;;;47.63;16.48;;;15.40;61.50;;;;;;3972184;29;20494;-65
2022/03/25 02:50:09;;;;;;;47.88;16.88;;;15.30;61.30;;;;;;3971046;29;20491;-65
2022/03/25 02:52:32;;;;;;;61.92;15.57;;;15.30;61.30;;;;;;3973560;29;20496;-67
2022/03/25 02:54:56;;;;;;;51.70;17.55;;;15.30;61.20;;;;;;3986493;29;20058;-68
2022/03/25 02:57:18;;;;;;;70.80;18.50;;;15.30;61.40;;;;;;3986761;29;20066;-68
2022/03/25 02:59:40;;;;;;;70.18;18.58;;;15.30;61.30;;;;;;3986298;29;20082;-68
2022/03/25 03:02:02;;;;;;;65.30;17.20;;;15.30;61.20;;;;;;3986619;29;20053;-67
2022/03/25 03:04:24;;;;;;;71.38;19.05;;;15.30;61.30;;;;;;3986684;29;20054;-67
2022/03/25 03:06:46;;;;;;;61.80;19.77;;;15.30;61.50;;;;;;3986881;29;20161;-67
2022/03/25 03:09:08;;;;;;;75.32;17.75;;;15.20;61.70;;;;;;3986038;29;20058;-67
2022/03/25 03:11:32;;;;;;;62.83;17.92;;;15.20;61.20;;;;;;3971507;29;20062;-68
2022/03/25 03:13:54;;;;;;;64.07;18.00;;;15.30;61.30;;;;;;3971443;29;20169;-68
2022/03/25 03:16:16;;;;;;;59.72;18.35;;;15.20;61.40;;;;;;3971546;29;20059;-68
2022/03/25 03:18:38;;;;;;;43.88;18.50;;;15.20;61.50;;;;;;3974019;29;20480;-68
2022/03/25 03:21:00;;;;;;;30.83;18.50;;;15.20;61.60;;;;;;3986347;29;20054;-68
2022/03/25 03:23:22;;;;;;;75.93;19.33;;;15.20;61.60;;;;;;3986534;29;20065;-67
2022/03/25 03:25:45;;;;;;;55.42;20.50;;;15.20;61.60;;;;;;3973293;29;20058;-67
2022/03/25 03:28:08;;;;;;;60.30;19.98;;;15.20;61.70;;;;;;3980713;29;20169;-68
2022/03/25 03:30:31;;;;;;;69.85;20.10;;;15.20;61.70;;;;;;3983663;29;20054;-68
2022/03/25 03:32:57;;;;;;;49.78;21.38;;;15.20;61.70;;;;;;3986526;29;20056;-66
2022/03/25 03:35:19;;;;;;;52.60;20.15;;;15.20;61.70;;;;;;3986155;29;20066;-65
2022/03/25 03:37:42;;;;;;;68.43;21.55;;;15.20;61.70;;;;;;3986895;29;20099;-66
2022/03/25 03:40:05;;;;;;;53.90;21.65;;;15.20;62.30;;;;;;3972122;29;20070;-65
2022/03/25 03:42:27;;;;;;;52.78;21.52;;;15.10;61.70;;;;;;3986871;29;20167;-66
2022/03/25 03:44:51;;;;;;;71.72;22.25;;;15.10;61.70;;;;;;3986422;29;20050;-68
2022/03/25 03:47:14;;;;;;;71.28;20.15;;;15.10;61.80;;;;;;3986838;29;20132;-67
2022/03/25 03:49:36;;;;;;;56.58;19.45;;;15.10;61.90;;;;;;3985663;29;20133;-68
2022/03/25 03:51:59;;;;;;;75.95;18.80;;;15.10;61.80;;;;;;3986644;29;20058;-66
2022/03/25 03:54:21;;;;;;;90.63;19.42;;;15.10;61.80;;;;;;3986290;29;20064;-66
2022/03/25 03:57:02;;;;;;;69.10;17.55;;;15.00;61.80;;;;;;3986360;29;20054;-66
2022/03/25 03:59:25;;;;;;;54.25;18.15;;;15.00;61.90;;;;;;3985942;29;20054;-65
2022/03/25 04:01:48;;;;;;;32.50;17.20;;;15.00;61.90;;;;;;3986446;29;20066;-65
2022/03/25 04:04:11;;;;;;;45.30;17.08;;;15.00;61.90;;;;;;3986624;29;20382;-66
2022/03/25 04:06:33;;;;;;;34.15;17.10;;;15.00;62.90;;;;;;3986411;29;20054;-66
2022/03/25 04:08:56;;;;;;;29.83;17.42;;;15.00;62.10;;;;;;3985768;29;20054;-65
2022/03/25 04:11:18;;;;;;;33.17;16.38;;;15.00;62.00;;;;;;3970926;29;20057;-66
2022/03/25 04:13:40;;;;;;;32.97;16.73;;;15.00;62.10;;;;;;3971545;29;20046;-66
2022/03/25 04:16:03;;;;;;;23.63;16.98;;;15.00;62.10;;;;;;3986368;29;20454;-66
2022/03/25 04:18:27;;;;;;;24.35;17.02;;;14.90;62.00;;;;;;3985948;29;20050;-66
2022/03/25 04:20:49;;;;;;;33.05;16.75;;;15.00;62.20;;;;;;3985397;29;20054;-66
2022/03/25 04:23:14;;;;;;;22.05;16.38;;;15.00;62.20;;;;;;3985891;29;20496;-66
2022/03/25 04:25:36;;;;;;;28.00;15.82;;;14.90;62.20;;;;;;3972129;29;20054;-67
2022/03/25 04:27:59;;;;;;;27.95;15.10;;;14.90;63.10;;;;;;3986267;29;20058;-66
2022/03/25 04:30:26;;;;;;;29.67;15.27;;;14.90;62.20;;;;;;3986015;29;20168;-66
2022/03/25 04:32:48;;;;;;;36.90;15.60;;;14.90;62.30;;;;;;3986030;29;20107;-65
2022/03/25 04:35:12;;;;;;;29.10;15.45;;;14.90;62.30;;;;;;3985895;29;20490;-65
2022/03/25 04:37:33;;;;;;;23.80;16.23;;;14.90;62.30;;;;;;3986013;29;20066;-65
2022/03/25 04:39:56;;;;;;;19.58;16.95;;;14.90;62.20;;;;;;3985468;29;20134;-65
2022/03/25 04:42:18;;;;;;;23.10;18.23;;;14.90;62.30;;;;;;3985713;29;20106;-65
2022/03/25 04:44:40;;;;;;;20.83;17.02;;;14.80;62.40;;;;;;3986133;29;20046;-67
2022/03/25 04:47:03;;;;;;;23.88;18.33;;;14.80;62.30;;;;;;3985829;29;20050;-66
2022/03/25 04:49:25;;;;;;;24.83;19.98;;;14.80;62.30;;;;;;3985197;29;20482;-68
2022/03/25 04:51:48;;;;;;;25.00;19.92;;;14.80;62.40;;;;;;3985606;29;20054;-68
2022/03/25 04:54:10;;;;;;;26.77;20.25;;;14.80;62.40;;;;;;3985140;29;20150;-66
2022/03/25 04:56:34;;;;;;;22.58;18.58;;;14.80;62.40;;;;;;3985848;29;20139;-68
2022/03/25 04:58:55;;;;;;;23.35;18.60;;;14.80;62.30;;;;;;3985167;29;20062;-67
2022/03/25 05:01:18;;;;;;;25.83;19.50;;;14.80;62.40;;;;;;3985758;29;20390;-68
2022/03/25 05:03:40;;;;;;;26.75;20.38;;;14.80;62.50;;;;;;3985542;29;20106;-67
2022/03/25 05:06:02;;;;;;;29.48;20.50;;;14.80;62.50;;;;;;3985271;29;20061;-67
2022/03/25 05:08:26;;;;;;;29.48;21.20;;;14.80;62.50;;;;;;3984811;29;20129;-68
2022/03/25 05:10:48;;;;;;;26.13;19.95;;;14.80;62.50;;;;;;3985578;29;20054;-67
2022/03/25 05:13:22;;;;;;;28.10;21.50;;;14.80;62.50;;;;;;3985006;29;20058;-67
2022/03/25 05:15:44;;;;;;;24.48;18.58;;;14.70;62.50;;;;;;3986053;29;20046;-65
2022/03/25 05:18:06;;;;;;;24.80;20.00;;;14.70;62.60;;;;;;3985408;29;20524;-66
2022/03/25 05:20:28;;;;;;;27.38;21.70;;;14.70;62.60;;;;;;3985566;29;20046;-66
2022/03/25 05:22:51;;;;;;;27.58;20.98;;;14.70;62.60;;;;;;3971932;29;20150;-66
2022/03/25 05:25:14;;;;;;;28.75;20.63;;;14.70;62.70;;;;;;3985443;29;20107;-65
2022/03/25 05:27:47;;;;;;;32.65;22.92;;;14.70;62.70;;;;;;3985837;29;20081;-66
2022/03/25 05:30:10;;;;;;;30.15;21.75;;;14.70;62.50;;;;;;3969985;29;20359;-66
2022/03/25 05:32:33;;;;;;;30.00;22.15;;;14.70;62.70;;;;;;3972749;29;20130;-67
2022/03/25 05:34:55;;;;;;;32.90;23.60;;;14.70;62.70;;;;;;3973082;29;20066;-67
2022/03/25 05:37:17;;;;;;;32.08;22.00;;;14.70;62.70;;;;;;3973577;29;20062;-67
2022/03/25 05:39:40;;;;;;;31.45;22.17;;;14.70;62.70;;;;;;3986139;29;20145;-67
2022/03/25 05:42:03;;;;;;;31.50;23.00;;;14.70;62.90;;;;;;3988332;29;20133;-67
2022/03/25 05:44:25;;;;;;;31.08;21.63;;;14.70;63.00;;;;;;3987969;29;20064;-67
2022/03/25 05:46:47;;;;;;;30.05;21.95;;;14.70;62.90;;;;;;3988186;29;20050;-67
2022/03/25 05:49:10;;;;;;;28.98;21.20;;;14.70;63.00;;;;;;3987923;29;20057;-66
2022/03/25 05:51:32;;;;;;;32.30;22.45;;;14.60;62.90;;;;;;3988309;29;20545;-67
2022/03/25 05:53:55;;;;;;;29.30;21.02;;;14.60;62.90;;;;;;3988264;29;20054;-67
2022/03/25 05:56:17;;;;;;;29.33;20.35;;;14.60;63.00;;;;;;3988021;29;20141;-67
2022/03/25 05:58:40;;;;;;;35.53;23.55;;;14.60;62.90;;;;;;3987826;29;20512;-66
2022/03/25 06:01:03;;;;;;;34.03;24.23;;;14.60;62.90;;;;;;3987848;29;20394;-66
2022/03/25 06:03:26;;;;;;;36.28;25.30;;;14.60;62.90;;;;;;3988040;29;20065;-66
2022/03/25 06:05:49;;;;;;;38.55;24.17;;;14.60;62.80;;;;;;3973683;29;20490;-66
2022/03/25 06:08:11;;;;;;;42.70;30.02;;;14.60;62.90;;;;;;3978148;29;20080;-66
2022/03/25 06:10:34;;;;;;;36.33;26.00;;;14.60;62.80;;;;;;3987863;29;20062;-66
2022/03/25 06:12:56;;;;;;;37.28;26.00;;;14.60;62.90;;;;;;3987668;29;20051;-66
2022/03/25 06:15:20;;;;;;;39.40;26.42;;;14.60;62.90;;;;;;3987900;29;20471;-65
2022/03/25 06:17:47;;;;;;;39.50;26.98;;;14.60;63.00;;;;;;3973358;29;20501;-66
2022/03/25 06:20:11;;;;;;;38.03;27.13;;;14.60;63.00;;;;;;3987404;29;20080;-67
2022/03/25 06:22:34;;;;;;;43.13;27.88;;;14.60;63.10;;;;;;3987571;29;20517;-67
2022/03/25 06:24:57;;;;;;;41.72;28.95;;;14.60;63.10;;;;;;3987232;29;20082;-69
2022/03/25 06:27:19;;;;;;;44.20;29.73;;;14.60;63.40;;;;;;3973510;29;20093;-68
2022/03/25 06:29:41;;;;;;;46.55;29.92;;;14.60;63.30;;;;;;3987226;29;20083;-69
2022/03/25 06:32:07;;;;;;;45.92;29.77;;;14.70;63.10;;;;;;3987155;29;20516;-67
2022/03/25 06:34:30;;;;;;;46.97;31.35;;;14.70;63.10;;;;;;3987210;29;20123;-68
2022/03/25 06:36:52;;;;;;;44.50;30.30;;;14.70;63.00;;;;;;3987298;29;20042;-67
2022/03/25 06:39:14;;;;;;;43.85;30.50;;;14.70;63.10;;;;;;3985850;29;20149;-67
2022/03/25 06:41:36;;;;;;;51.05;32.10;;;14.70;62.90;;;;;;3986069;29;20086;-67
2022/03/25 06:43:58;;;;;;;48.65;31.20;;;14.70;62.70;;;;;;3986459;29;20142;-67
2022/03/25 06:46:20;;;;;;;53.78;34.05;;;14.60;62.70;;;;;;3986728;29;20165;-67
2022/03/25 06:48:44;;;;;;;54.75;35.45;;;14.60;62.60;;;;;;3986961;29;20047;-66
2022/03/25 06:51:08;;;;;;;52.38;32.58;;;14.60;62.80;;;;;;3987581;29;20065;-67
2022/03/25 06:53:30;;;;;;;52.03;32.17;;;14.60;62.80;;;;;;3986698;29;20114;-67
2022/03/25 06:55:53;;;;;;;50.50;34.83;;;14.60;63.00;;;;;;3986389;29;20470;-66
2022/03/25 06:58:15;;;;;;;48.88;31.63;;;14.60;63.00;;;;;;3986289;29;20125;-66
2022/03/25 07:00:38;;;;;;;50.53;33.58;;;14.60;63.10;;;;;;3986962;29;20118;-67
2022/03/25 07:03:00;;;;;;;49.15;32.40;;;14.50;63.00;;;;;;3986973;29;20050;-66
2022/03/25 07:05:25;;;;;;;49.85;33.42;;;14.60;63.10;;;;;;3985709;29;20071;-67
2022/03/25 07:07:47;;;;;;;51.05;33.88;;;14.50;63.10;;;;;;3986357;29;20050;-67
2022/03/25 07:10:11;;;;;;;48.13;33.28;;;14.50;63.10;;;;;;3986918;29;20050;-67
2022/03/25 07:12:34;;;;;;;53.72;35.08;;;14.50;62.40;;;;;;3986892;29;20056;-68
2022/03/25 07:14:56;;;;;;;52.40;34.10;;;14.50;62.20;;;;;;3972831;29;20055;-67
2022/03/25 07:17:20;;;;;;;49.78;31.95;;;14.50;62.70;;;;;;3986500;29;20057;-67
2022/03/25 07:19:42;;;;;;;53.10;34.70;;;14.50;62.50;;;;;;3986479;29;20057;-67
2022/03/25 07:22:06;;;;;;;47.80;32.67;;;14.50;62.10;;;;;;3986735;29;20061;-68
2022/03/25 07:24:29;;;;;;;48.95;31.90;;;14.50;62.00;;;;;;3986494;29;20062;-68
2022/03/25 07:26:51;;;;;;;48.72;31.80;;;14.50;62.70;;;;;;3987011;29;20062;-68
2022/03/25 07:29:13;;;;;;;47.55;32.45;;;14.50;61.80;;;;;;3985024;29;20562;-67
2022/03/25 07:31:35;;;;;;;44.88;31.75;;;14.50;61.80;;;;;;3972782;29;20524;-68
2022/03/25 07:33:58;;;;;;;49.95;31.27;;;14.60;62.00;;;;;;3986754;29;20059;-68
2022/03/25 07:36:20;;;;;;;46.28;30.92;;;14.60;62.10;;;;;;3985133;29;20080;-68
2022/03/25 07:38:43;;;;;;;45.33;32.33;;;14.60;62.30;;;;;;3996647;29;20148;-68
2022/03/25 07:41:05;;;;;;;48.40;31.98;;;14.70;61.90;;;;;;4001045;29;20405;-68
2022/03/25 07:43:28;;;;;;;44.90;31.00;;;14.70;62.00;;;;;;3970099;29;20138;-68
2022/03/25 07:45:50;;;;;;;50.72;30.70;;;14.70;61.90;;;;;;3984658;29;20504;-68
2022/03/25 07:48:12;;;;;;;42.35;29.88;;;14.80;62.10;;;;;;3986403;29;20377;-67
2022/03/25 07:50:34;;;;;;;43.35;29.27;;;14.80;62.10;;;;;;3985145;29;20057;-67
2022/03/25 07:52:56;;;;;;;45.22;29.60;;;14.80;63.30;;;;;;3971007;29;20055;-68
2022/03/25 07:55:21;;;;;;;45.78;29.25;;;14.80;62.50;;;;;;3984170;29;20062;-70
2022/03/25 07:57:43;;;;;;;42.15;28.63;;;14.90;62.80;;;;;;3986435;29;20419;-68
2022/03/25 08:00:11;;;;;;;39.60;27.52;;;14.80;62.70;;;;;;3972386;29;20422;-68
2022/03/25 08:02:33;;;;;;;42.17;28.40;;;14.90;62.90;;;;;;3984731;29;20446;-68
2022/03/25 08:04:55;;;;;;;41.25;27.20;;;14.90;63.00;;;;;;3980497;29;20149;-70
2022/03/25 08:07:19;;;;;;;38.25;27.25;;;15.00;62.70;;;;;;3986576;29;20058;-70
2022/03/25 08:09:41;;;;;;;38.38;25.92;;;15.00;62.80;;;;;;3985735;29;20053;-69
2022/03/25 08:12:05;;;;;;;43.70;26.38;;;15.10;62.20;;;;;;3976774;29;20122;-70
2022/03/25 08:14:27;;;;;;;41.25;27.63;;;15.10;62.00;;;;;;3972654;29;20051;-69
2022/03/25 08:16:49;;;;;;;39.53;26.45;;;15.10;61.40;;;;;;3985748;29;20058;-66
2022/03/25 08:19:11;;;;;;;37.70;24.77;;;15.20;61.20;;;;;;3986091;29;20050;-67
2022/03/25 08:21:34;;;;;;;36.05;25.20;;;15.20;62.10;;;;;;3985717;29;20505;-67
2022/03/25 08:29:17;;;;;;;37.15;23.70;;;15.30;60.70;;;;;;3970608;29;20505;-70
2022/03/25 08:31:40;;;;;;;36.38;24.95;;;15.30;60.70;;;;;;3970728;29;20058;-68
2022/03/25 08:34:02;;;;;;;39.75;23.67;;;15.30;61.10;;;;;;3988619;29;20050;-65
2022/03/25 08:36:24;;;;;;;34.15;23.65;;;15.30;61.60;;;;;;3994504;29;20109;-66
2022/03/25 08:38:47;;;;;;;38.60;23.27;;;15.30;61.00;;;;;;3985945;29;20481;-66
2022/03/25 08:41:09;;;;;;;34.97;22.60;;;15.40;60.50;;;;;;3996746;29;20126;-66
2022/03/25 08:43:32;;;;;;;30.45;20.45;;;15.40;60.30;;;;;;3983177;29;20133;-66
2022/03/25 08:45:56;;;;;;;34.85;22.60;;;15.40;59.70;;;;;;3986098;29;20065;-66
2022/03/25 08:48:18;;;;;;;37.90;24.10;;;15.40;59.80;;;;;;3985956;29;20145;-66
2022/03/25 08:50:40;;;;;;;34.45;22.63;;;15.40;60.00;;;;;;3985866;29;20058;-66
2022/03/25 08:53:04;;;;;;;34.03;21.52;;;15.40;59.80;;;;;;3986077;29;20497;-66
2022/03/25 08:55:27;;;;;;;34.85;20.52;;;15.40;59.70;;;;;;3986008;29;20067;-66
2022/03/25 08:57:50;;;;;;;34.28;17.33;;;15.40;59.80;;;;;;3985837;29;20531;-65
2022/03/25 09:00:14;;;;;;;28.35;17.60;;;15.40;57.70;;;;;;3986078;29;20477;-65
2022/03/25 09:02:38;;;;;;;25.35;16.65;;;15.40;55.50;;;;;;3985102;29;20054;-65
2022/03/25 09:05:00;;;;;;;26.63;16.10;;;15.40;54.70;;;;;;3985838;29;20051;-65
2022/03/25 09:07:22;;;;;;;27.83;16.73;;;15.40;54.60;;;;;;3987886;29;20802;-65
2022/03/25 09:09:44;;;;;;;25.27;16.30;;;15.40;54.70;;;;;;3988319;29;20137;-66
2022/03/25 09:12:08;;;;;;;26.30;15.50;;;15.40;54.90;;;;;;3988118;29;20069;-66
2022/03/25 09:14:30;;;;;;;29.10;16.13;;;15.40;54.40;;;;;;3973298;29;20089;-66
2022/03/25 09:16:52;;;;;;;29.85;16.42;;;15.50;55.00;;;;;;3973732;29;20055;-66
2022/03/25 09:19:15;;;;;;;26.27;16.27;;;15.50;55.70;;;;;;3985856;29;20130;-65
2022/03/25 09:21:37;;;;;;;25.65;15.48;;;15.50;55.00;;;;;;3973295;29;20061;-66
2022/03/25 09:23:59;;;;;;;24.45;13.77;;;15.50;54.00;;;;;;3987448;29;20058;-65
2022/03/25 09:26:21;;;;;;;22.85;15.13;;;15.60;53.40;;;;;;3988472;29;20054;-65
2022/03/25 09:28:44;;;;;;;24.63;15.45;;;15.60;51.50;;;;;;3988098;29;20145;-64
2022/03/25 09:31:06;;;;;;;26.42;16.30;;;15.60;51.80;;;;;;3988133;29;20507;-65
2022/03/25 09:33:28;;;;;;;26.88;14.95;;;15.70;52.50;;;;;;3987378;29;20513;-65
2022/03/25 09:35:52;;;;;;;25.17;15.10;;;15.70;52.20;;;;;;3988435;29;20086;-64
2022/03/25 09:38:14;;;;;;;26.60;16.13;;;15.70;52.10;;;;;;3980539;29;20065;-64
2022/03/25 09:40:36;;;;;;;27.95;15.75;;;15.70;51.80;;;;;;3988172;29;20050;-64
2022/03/25 09:42:59;;;;;;;27.63;16.75;;;15.70;51.60;;;;;;3987890;29;20152;-65
2022/03/25 09:45:22;;;;;;;25.88;14.80;;;15.80;52.50;;;;;;3988137;29;20482;-64
2022/03/25 09:47:45;;;;;;;30.58;15.57;;;15.80;53.20;;;;;;3993154;29;20572;-64
2022/03/25 09:50:11;;;;;;;29.05;18.48;;;15.80;51.80;;;;;;3993882;29;20048;-64
2022/03/25 09:52:36;;;;;;;24.13;15.43;;;15.80;50.60;;;;;;4003119;29;20058;-64
2022/03/25 09:55:13;;;;;;;26.13;15.77;;;15.80;52.40;;;;;;3989829;29;20050;-64
2022/03/25 09:57:36;;;;;;;27.95;17.08;;;15.80;51.20;;;;;;3988087;29;20162;-65
2022/03/25 09:59:58;;;;;;;28.80;18.05;;;15.90;50.60;;;;;;3987604;29;20608;-65
2022/03/25 10:02:21;;;;;;;27.33;17.33;;;15.90;51.00;;;;;;3989450;29;20137;-65
2022/03/25 10:04:44;;;;;;;28.85;19.02;;;15.90;51.30;;;;;;4003001;29;20061;-64
2022/03/25 10:07:16;;;;;;;35.97;19.73;;;15.90;51.30;;;;;;3989524;29;20064;-65
2022/03/25 10:09:40;;;;;;;31.83;19.35;;;15.90;51.00;;;;;;3987710;29;20476;-65
2022/03/25 10:12:20;;;;;;;34.30;19.98;;;16.00;51.20;;;;;;3988084;29;20092;-65
2022/03/25 10:14:42;;;;;;;35.03;19.90;;;16.00;51.00;;;;;;3976493;29;20122;-64
2022/03/25 10:17:09;;;;;;;30.80;20.02;;;16.00;51.10;;;;;;3987419;29;20061;-64
2022/03/25 10:19:33;;;;;;;35.97;19.38;;;16.00;51.30;;;;;;3985427;29;20111;-65
2022/03/25 10:21:56;;;;;;;32.55;20.23;;;16.00;52.90;;;;;;3974637;29;20086;-64
2022/03/25 10:24:19;;;;;;;33.60;18.63;;;16.00;52.60;;;;;;3986971;29;20062;-65
2022/03/25 10:26:42;;;;;;;30.35;18.02;;;16.10;52.40;;;;;;3983511;29;20082;-65
2022/03/25 10:29:04;;;;;;;33.10;19.35;;;16.10;52.30;;;;;;3996786;29;20412;-64
2022/03/25 10:31:26;;;;;;;36.88;19.20;;;16.10;52.60;;;;;;4001478;29;20080;-65
2022/03/25 10:33:50;;;;;;;34.95;19.98;;;16.20;52.40;;;;;;3987751;29;20431;-65
2022/03/25 10:36:14;;;;;;;33.53;20.83;;;16.20;52.50;;;;;;3989068;29;20177;-65
2022/03/25 10:38:48;;;;;;;33.38;20.52;;;16.20;52.10;;;;;;3987225;29;20154;-64
2022/03/25 10:41:11;;;;;;;37.55;22.13;;;16.30;52.30;;;;;;3991657;29;20046;-65
2022/03/25 10:43:35;;;;;;;33.63;20.92;;;16.30;51.40;;;;;;4000879;29;20057;-65
2022/03/25 10:45:57;;;;;;;38.65;22.00;;;16.30;52.30;;;;;;3987072;29;20046;-66
2022/03/25 10:48:20;;;;;;;39.13;21.40;;;16.30;52.20;;;;;;3987003;29;20066;-66
2022/03/25 10:51:02;;;;;;;38.40;22.20;;;16.30;52.10;;;;;;3986629;29;20081;-65
2022/03/25 10:53:24;;;;;;;38.03;21.95;;;16.40;51.40;;;;;;3983078;29;20082;-65
2022/03/25 10:55:54;;;;;;;39.25;21.98;;;16.40;50.50;;;;;;3971870;29;20057;-65
2022/03/25 10:58:17;;;;;;;36.58;21.58;;;16.40;49.70;;;;;;3989337;29;20054;-66
2022/03/25 11:00:41;;;;;;;35.85;20.05;;;16.40;50.20;;;;;;4002017;29;20058;-66
2022/03/25 11:03:05;;;;;;;33.55;20.35;;;16.40;51.00;;;;;;4001807;29;20153;-66
2022/03/25 11:05:27;;;;;;;35.13;20.75;;;16.50;50.10;;;;;;3971823;29;20100;-66
2022/03/25 11:07:50;;;;;;;33.22;19.40;;;16.50;50.40;;;;;;3972011;29;20133;-65
2022/03/25 11:10:13;;;;;;;35.85;21.08;;;16.50;51.90;;;;;;3976097;29;20064;-65
2022/03/25 11:12:36;;;;;;;36.35;21.50;;;16.50;50.40;;;;;;3988024;29;20103;-65
2022/03/25 11:15:00;;;;;;;39.30;21.35;;;16.60;49.90;;;;;;3984486;29;20472;-66
2022/03/25 11:17:23;;;;;;;32.65;19.48;;;16.60;50.00;;;;;;3986843;29;20461;-66
2022/03/25 11:19:46;;;;;;;38.10;20.67;;;16.60;49.90;;;;;;3985267;29;20123;-65
2022/03/25 11:22:09;;;;;;;37.35;21.02;;;16.60;49.60;;;;;;3986668;29;20478;-65
2022/03/25 11:24:35;;;;;;;37.70;19.98;;;16.60;49.70;;;;;;3986163;29;20501;-65
2022/03/25 11:26:58;;;;;;;31.85;19.67;;;16.70;49.10;;;;;;3987694;29;20482;-65
2022/03/25 11:29:24;;;;;;;33.47;19.92;;;16.70;48.90;;;;;;3988047;29;20054;-65
2022/03/25 11:32:11;;;;;;;35.75;20.05;;;16.70;48.70;;;;;;3988653;29;20416;-66
2022/03/25 11:34:39;;;;;;;39.03;19.83;;;16.70;47.60;;;;;;3991823;29;20076;-65
2022/03/25 11:37:33;;;;;;;35.38;20.63;;;16.70;47.40;;;;;;4001615;29;20053;-65
2022/03/25 11:40:25;;;;;;;37.20;19.73;;;16.80;47.00;;;;;;3969097;29;20058;-65
2022/03/25 11:42:48;;;;;;;34.15;22.20;;;16.80;47.80;;;;;;3989495;29;20501;-65
2022/03/25 11:45:35;;;;;;;39.03;21.05;;;16.80;47.40;;;;;;4001207;29;20127;-65
2022/03/25 11:48:31;;;;;;;37.63;19.98;;;16.80;46.40;;;;;;3986234;29;20122;-65
2022/03/25 11:50:56;;;;;;;34.70;20.05;;;16.80;46.90;;;;;;4000204;29;20066;-66
2022/03/25 11:53:32;;;;;;;33.30;19.90;;;16.90;46.30;;;;;;4000724;29;20152;-66
2022/03/25 11:55:55;;;;;;;32.33;19.40;;;16.80;45.70;;;;;;4000566;29;20050;-66
2022/03/25 11:58:17;;;;;;;29.85;17.30;;;16.90;46.80;;;;;;4000825;29;20058;-65
2022/03/25 12:01:04;;;;;;;26.60;15.32;;;16.90;45.00;;;;;;3995414;29;20393;-65
2022/03/25 12:03:42;;;;;;;28.98;14.68;;;16.90;43.80;;;;;;3992827;29;20066;-66
2022/03/25 12:06:06;;;;;;;26.65;14.70;;;16.90;43.30;;;;;;4000678;29;20057;-66
2022/03/25 12:08:31;;;;;;;23.85;12.75;;;16.90;43.80;;;;;;4000546;29;20153;-66
2022/03/25 12:10:54;;;;;;;22.02;11.88;;;16.90;44.50;;;;;;4000124;29;20126;-66
2022/03/25 12:13:17;;;;;;;24.98;12.88;;;16.90;43.70;;;;;;3999863;29;20053;-67